Time;durP1;ratioP1;P1;durP2;ratioP2;P2;SDS_P1;SDS_P2;PMS_P1;PMS_P2;Temp;Humidity;BMP_temperature;BMP_pressure;BME280_temperature;BME280_humidity;BME280_pressure;Samples;Min_cycle;Max_cycle;Signal;HPM_P1;HPM_P2
2023/01/28 00:00:34;;;;;;;11.17;5.60;;;-1.50;99.90;;;;;;5029218;28;20546;-52
2023/01/28 00:03:02;;;;;;;7.40;5.87;;;-1.40;99.90;;;;;;5028724;28;20452;-52
2023/01/28 00:05:29;;;;;;;9.33;7.50;;;-1.40;99.90;;;;;;5010137;28;20530;-50
2023/01/28 00:07:56;;;;;;;8.83;6.77;;;-1.50;99.90;;;;;;5009773;28;20448;-50
2023/01/28 00:10:23;;;;;;;8.23;6.80;;;-1.60;99.90;;;;;;5010180;28;20467;-51
2023/01/28 00:12:50;;;;;;;10.43;6.77;;;-1.70;99.90;;;;;;5028201;28;20535;-52
2023/01/28 00:15:17;;;;;;;9.93;6.93;;;-1.80;99.90;;;;;;5028884;28;20446;-50
2023/01/28 00:17:44;;;;;;;8.63;6.80;;;-1.70;99.90;;;;;;5029591;28;20529;-50
2023/01/28 00:20:13;;;;;;;8.30;6.87;;;-1.60;99.90;;;;;;5061720;23;20591;-80
2023/01/28 00:22:40;;;;;;;8.07;6.40;;;-1.60;99.90;;;;;;5070271;28;20508;-79
2023/01/28 00:25:07;;;;;;;9.23;6.30;;;-1.50;99.90;;;;;;5070852;28;20524;-79
2023/01/28 00:27:34;;;;;;;7.90;7.10;;;-1.40;99.90;;;;;;5070899;28;20465;-79
2023/01/28 00:30:01;;;;;;;13.53;7.43;;;-1.50;99.90;;;;;;5068535;28;20563;-79
2023/01/28 00:32:28;;;;;;;22.17;10.80;;;-1.50;99.90;;;;;;5071135;28;20545;-79
2023/01/28 00:34:55;;;;;;;14.93;9.33;;;-1.50;99.90;;;;;;5071696;28;20445;-79
2023/01/28 00:37:23;;;;;;;19.97;9.50;;;-1.50;99.90;;;;;;5072560;28;20517;-79
2023/01/28 00:39:50;;;;;;;28.50;14.10;;;-1.70;99.90;;;;;;5071947;28;21011;-79
2023/01/28 00:42:17;;;;;;;17.23;10.60;;;-1.80;99.90;;;;;;5070919;28;20524;-79
2023/01/28 00:44:44;;;;;;;13.40;8.20;;;-1.70;99.90;;;;;;5070870;28;20553;-80
2023/01/28 00:47:11;;;;;;;9.97;7.10;;;-1.60;99.90;;;;;;5071200;28;20532;-79
2023/01/28 00:49:38;;;;;;;12.70;7.70;;;-1.60;99.90;;;;;;5070466;28;20563;-79
2023/01/28 00:52:05;;;;;;;13.00;8.17;;;-1.60;99.90;;;;;;5070737;28;20549;-80
2023/01/28 00:54:35;;;;;;;12.40;7.40;;;-1.70;99.90;;;;;;5070153;28;20975;-79
2023/01/28 00:57:01;;;;;;;10.77;7.87;;;-1.90;99.90;;;;;;5071850;28;20968;-79
2023/01/28 00:59:28;;;;;;;12.30;6.87;;;-2.10;99.90;;;;;;5072239;28;20898;-79
2023/01/28 01:02:11;;;;;;;11.20;7.27;;;-2.30;99.90;;;;;;5068312;28;21056;-79
2023/01/28 01:04:38;;;;;;;10.30;7.97;;;-2.40;99.90;;;;;;5055212;28;20958;-79
2023/01/28 01:07:05;;;;;;;9.77;6.93;;;-2.40;99.90;;;;;;5051646;28;20528;-79
2023/01/28 01:09:33;;;;;;;10.90;6.80;;;-2.50;99.90;;;;;;5050553;28;20484;-79
2023/01/28 01:12:00;;;;;;;8.47;7.57;;;-2.50;99.90;;;;;;5050113;28;21051;-79
2023/01/28 01:14:27;;;;;;;11.17;7.63;;;-2.40;99.90;;;;;;5050200;28;20540;-79
2023/01/28 01:16:54;;;;;;;10.00;7.90;;;-2.40;99.90;;;;;;5050210;28;20523;-79
2023/01/28 01:19:21;;;;;;;7.67;5.53;;;-2.30;99.90;;;;;;5049884;28;20540;-79
2023/01/28 01:21:49;;;;;;;7.37;5.73;;;-2.40;99.90;;;;;;5051178;28;20548;-80
2023/01/28 01:24:16;;;;;;;7.50;5.20;;;-2.40;99.90;;;;;;5050342;28;20966;-79
2023/01/28 01:26:44;;;;;;;8.40;5.87;;;-2.40;99.90;;;;;;5051007;28;20455;-79
2023/01/28 01:29:11;;;;;;;8.57;5.70;;;-2.30;99.90;;;;;;5053933;28;20564;-79
2023/01/28 01:31:39;;;;;;;7.40;5.30;;;-2.20;99.90;;;;;;5054127;28;20544;-79
2023/01/28 01:34:05;;;;;;;7.80;5.70;;;-2.00;99.90;;;;;;5055068;28;20473;-79
2023/01/28 01:36:32;;;;;;;10.60;7.07;;;-1.90;99.90;;;;;;5054828;28;20485;-79
2023/01/28 01:38:59;;;;;;;11.27;7.73;;;-2.00;99.90;;;;;;5053435;28;20516;-79
2023/01/28 01:41:29;;;;;;;11.57;6.70;;;-1.90;99.90;;;;;;5054683;28;20549;-79
2023/01/28 01:44:00;;;;;;;9.27;6.27;;;-1.80;99.90;;;;;;5056224;28;20477;-79
2023/01/28 01:46:33;;;;;;;9.00;7.03;;;-1.90;99.90;;;;;;5054722;28;20532;-80
2023/01/28 01:49:07;;;;;;;10.30;6.50;;;-2.00;99.90;;;;;;5053249;28;20936;-80
2023/01/28 01:51:35;;;;;;;7.13;5.90;;;-2.10;99.90;;;;;;5053827;28;20469;-80
2023/01/28 01:54:04;;;;;;;7.90;5.67;;;-2.00;99.90;;;;;;5053583;28;21049;-79
2023/01/28 01:56:39;;;;;;;5.83;5.20;;;-2.00;99.90;;;;;;5065441;28;20477;-79
2023/01/28 01:59:12;;;;;;;8.50;5.60;;;-1.80;99.90;;;;;;5052634;28;20822;-79
2023/01/28 02:01:39;;;;;;;7.03;5.30;;;-1.90;99.90;;;;;;5053226;28;20981;-80
2023/01/28 02:04:11;;;;;;;7.53;5.77;;;-1.90;99.90;;;;;;5053494;28;20453;-79
2023/01/28 02:06:40;;;;;;;8.47;6.07;;;-2.00;99.90;;;;;;5053961;28;20529;-79
2023/01/28 02:09:21;;;;;;;7.50;5.60;;;-2.20;99.90;;;;;;5053799;28;20565;-80
2023/01/28 02:11:49;;;;;;;6.73;4.60;;;-2.20;99.90;;;;;;5053746;28;20496;-79
2023/01/28 02:14:17;;;;;;;6.73;5.53;;;-2.40;99.90;;;;;;5053190;28;20528;-79
2023/01/28 02:16:44;;;;;;;6.20;5.20;;;-2.40;99.90;;;;;;5054106;28;20994;-80
2023/01/28 02:19:12;;;;;;;5.93;4.70;;;-2.40;99.90;;;;;;5054981;28;20534;-79
2023/01/28 02:22:06;;;;;;;6.83;4.53;;;-2.40;99.90;;;;;;5052705;28;20545;-79
2023/01/28 02:24:58;;;;;;;5.30;4.20;;;-2.30;99.90;;;;;;5052544;28;20467;-79
2023/01/28 02:27:31;;;;;;;7.47;4.70;;;-2.20;99.90;;;;;;5052414;28;20990;-80
2023/01/28 02:30:07;;;;;;;6.47;5.20;;;-2.20;99.90;;;;;;5052189;28;20485;-79
2023/01/28 02:32:41;;;;;;;8.57;4.77;;;-2.20;99.90;;;;;;5054425;28;20542;-79
2023/01/28 02:35:15;;;;;;;4.83;4.10;;;-2.20;99.90;;;;;;5065523;28;20521;-79
2023/01/28 02:37:47;;;;;;;6.03;4.60;;;-2.10;99.90;;;;;;5053160;28;21009;-80
2023/01/28 02:40:20;;;;;;;5.47;4.80;;;-2.00;99.90;;;;;;5052757;28;20528;-79
2023/01/28 02:42:47;;;;;;;7.53;5.13;;;-1.90;99.90;;;;;;5053565;28;20545;-79
2023/01/28 02:45:21;;;;;;;8.30;4.57;;;-1.80;99.90;;;;;;5053240;28;20536;-79
2023/01/28 02:47:59;;;;;;;4.97;4.30;;;-1.70;99.90;;;;;;5054134;28;20452;-80
2023/01/28 02:50:33;;;;;;;7.70;4.13;;;-1.70;99.90;;;;;;5052929;28;20481;-79
2023/01/28 02:56:09;;;;;;;5.30;3.80;;;-2.20;99.90;;;;;;5053388;28;20420;-79
2023/01/28 02:58:42;;;;;;;4.80;3.77;;;-2.20;99.90;;;;;;5054580;28;20532;-79
2023/01/28 03:01:18;;;;;;;4.50;3.70;;;-2.30;99.90;;;;;;5053281;28;20553;-79
2023/01/28 03:03:54;;;;;;;5.33;2.50;;;-2.40;99.90;;;;;;5051678;28;20466;-80
2023/01/28 03:06:26;;;;;;;2.93;2.63;;;-2.60;99.90;;;;;;5052984;28;20528;-79
2023/01/28 03:36:48;;;;;;;7.30;4.77;;;-2.40;99.90;;;;;;5071887;28;20436;-79
2023/01/28 03:39:16;;;;;;;7.73;5.40;;;-2.80;99.90;;;;;;5071075;28;20432;-79
2023/01/28 03:41:54;;;;;;;7.00;5.00;;;-2.80;99.90;;;;;;5070518;28;20573;-79
2023/01/28 03:47:07;;;;;;;6.10;4.50;;;-2.80;99.90;;;;;;5071227;28;20416;-79
2023/01/28 03:49:36;;;;;;;7.13;4.67;;;-2.90;99.90;;;;;;5070689;28;20538;-79
2023/01/28 03:52:02;;;;;;;6.50;4.43;;;-2.80;99.90;;;;;;5069920;28;20557;-80
2023/01/28 03:54:29;;;;;;;5.07;3.53;;;-2.70;99.90;;;;;;5071941;28;20537;-79
2023/01/28 03:56:56;;;;;;;9.90;6.60;;;-2.50;99.90;;;;;;5072018;28;20530;-79
2023/01/28 03:59:23;;;;;;;13.57;7.80;;;-2.50;99.90;;;;;;5071552;28;20528;-79
2023/01/28 04:01:50;;;;;;;13.90;8.33;;;-2.40;99.90;;;;;;5072078;28;20536;-79
2023/01/28 04:04:21;;;;;;;11.03;6.93;;;-2.20;99.90;;;;;;5071879;28;20485;-79
2023/01/28 04:06:50;;;;;;;8.10;5.20;;;-2.40;99.90;;;;;;5071493;28;20963;-80
2023/01/28 04:09:17;;;;;;;6.80;5.37;;;-2.40;99.90;;;;;;5070454;28;20568;-79
2023/01/28 04:11:44;;;;;;;5.93;4.23;;;-2.20;99.90;;;;;;5070735;28;20484;-79
2023/01/28 04:14:11;;;;;;;5.27;3.37;;;-2.30;99.90;;;;;;5070079;28;20527;-80
2023/01/28 04:16:38;;;;;;;4.83;3.77;;;-2.50;99.90;;;;;;5069155;28;20527;-79
2023/01/28 04:19:05;;;;;;;5.67;3.60;;;-2.50;99.90;;;;;;5053131;28;20993;-79
2023/01/28 04:21:32;;;;;;;3.90;3.40;;;-2.50;99.90;;;;;;5058904;28;20556;-79
2023/01/28 04:24:00;;;;;;;3.63;2.87;;;-2.50;99.90;;;;;;5063553;28;20545;-80
2023/01/28 04:26:27;;;;;;;3.63;2.53;;;-2.60;99.90;;;;;;5071942;28;20559;-79
2023/01/28 04:28:54;;;;;;;4.30;3.30;;;-2.40;99.90;;;;;;5053061;28;20521;-80
2023/01/28 04:31:22;;;;;;;5.57;3.90;;;-2.50;99.90;;;;;;5050811;28;20922;-79
2023/01/28 04:33:49;;;;;;;6.50;4.40;;;-2.70;99.90;;;;;;5054139;28;20898;-79
2023/01/28 04:36:16;;;;;;;6.60;5.47;;;-2.80;99.90;;;;;;5063158;28;20444;-80
2023/01/28 04:38:43;;;;;;;6.57;4.53;;;-2.80;99.90;;;;;;5059830;28;20528;-79
2023/01/28 04:41:11;;;;;;;7.07;5.20;;;-2.80;99.90;;;;;;5059248;28;20548;-79
2023/01/28 04:43:38;;;;;;;5.67;3.80;;;-2.90;99.90;;;;;;5061482;28;20535;-79
2023/01/28 04:46:06;;;;;;;3.80;3.33;;;-2.80;99.90;;;;;;5065441;28;20532;-79
2023/01/28 04:48:35;;;;;;;4.50;3.70;;;-2.90;99.90;;;;;;5050463;28;20531;-79
2023/01/28 04:51:02;;;;;;;4.63;3.80;;;-2.80;99.90;;;;;;5050841;28;20519;-79
2023/01/28 04:53:29;;;;;;;5.30;3.93;;;-2.70;99.90;;;;;;5062086;23;20516;-50
2023/01/28 04:55:56;;;;;;;6.70;3.50;;;-2.80;99.90;;;;;;5067866;28;20472;-50
2023/01/28 04:58:24;;;;;;;4.83;4.00;;;-2.70;99.90;;;;;;5066439;28;21008;-51
2023/01/28 05:00:55;;;;;;;4.30;3.83;;;-2.40;99.90;;;;;;5068187;28;20543;-50
2023/01/28 05:03:22;;;;;;;5.40;3.93;;;-2.30;99.90;;;;;;5068450;28;20447;-52
2023/01/28 05:05:49;;;;;;;4.17;3.37;;;-2.20;99.90;;;;;;5085369;22;20579;-79
2023/01/28 05:08:17;;;;;;;2.73;2.23;;;-2.20;99.90;;;;;;5036677;28;20448;-79
2023/01/28 05:10:44;;;;;;;3.93;2.70;;;-2.20;99.90;;;;;;5036523;28;20484;-80
2023/01/28 05:13:11;;;;;;;4.43;2.93;;;-2.10;99.90;;;;;;5038411;28;20485;-80
2023/01/28 05:15:39;;;;;;;5.77;4.20;;;-2.00;99.90;;;;;;5038043;28;20859;-80
2023/01/28 05:18:06;;;;;;;5.87;3.97;;;-2.10;99.90;;;;;;5036987;28;21013;-79
2023/01/28 05:20:34;;;;;;;5.40;4.03;;;-2.00;99.90;;;;;;5037231;28;20442;-80
2023/01/28 05:23:01;;;;;;;5.20;3.60;;;-2.20;99.90;;;;;;5036288;28;20478;-80
2023/01/28 05:25:28;;;;;;;4.73;3.63;;;-2.30;99.90;;;;;;5036235;28;20451;-80
2023/01/28 05:27:55;;;;;;;3.57;3.17;;;-2.40;99.90;;;;;;5036440;28;20501;-79
2023/01/28 05:30:22;;;;;;;5.47;4.30;;;-2.40;99.90;;;;;;5036047;28;20477;-79
2023/01/28 05:32:55;;;;;;;8.90;3.17;;;-2.40;99.90;;;;;;5036007;28;20523;-79
2023/01/28 05:35:23;;;;;;;4.97;4.00;;;-2.60;99.90;;;;;;5036492;28;20434;-80
2023/01/28 05:37:50;;;;;;;4.97;3.60;;;-2.70;99.90;;;;;;5036511;28;20505;-79
2023/01/28 05:40:17;;;;;;;6.30;4.37;;;-2.80;99.90;;;;;;5036085;28;20478;-79
2023/01/28 05:42:45;;;;;;;6.70;4.80;;;-2.80;99.90;;;;;;5036039;28;20508;-80
2023/01/28 05:45:12;;;;;;;7.90;4.77;;;-2.60;99.90;;;;;;5036325;28;20449;-79
2023/01/28 05:47:39;;;;;;;4.20;3.90;;;-2.50;99.90;;;;;;5036096;28;20450;-80
2023/01/28 05:50:09;;;;;;;5.47;3.80;;;-2.60;99.90;;;;;;5035884;28;20578;-80
2023/01/28 05:52:43;;;;;;;6.80;4.50;;;-2.70;99.90;;;;;;5035568;28;20481;-79
2023/01/28 05:57:53;;;;;;;7.83;4.63;;;-2.70;99.90;;;;;;5033931;28;20540;-80
2023/01/28 06:00:21;;;;;;;7.33;5.73;;;-2.70;99.90;;;;;;5041173;28;20434;-80
2023/01/28 06:02:54;;;;;;;4.70;3.77;;;-2.80;99.90;;;;;;5038730;28;20959;-79
2023/01/28 06:05:24;;;;;;;6.00;3.47;;;-2.80;99.90;;;;;;5035962;28;20538;-79
2023/01/28 06:08:00;;;;;;;7.13;4.53;;;-2.80;99.90;;;;;;5035117;28;20550;-80
2023/01/28 06:10:28;;;;;;;5.77;4.20;;;-2.80;99.90;;;;;;5017527;28;20893;-80
2023/01/28 06:13:01;;;;;;;3.77;2.60;;;-2.70;99.90;;;;;;5024817;28;20514;-80
2023/01/28 06:15:33;;;;;;;4.67;4.27;;;-2.60;99.90;;;;;;5015010;28;20900;-79
2023/01/28 06:18:01;;;;;;;6.80;4.53;;;-2.40;99.90;;;;;;5015950;28;20436;-80
2023/01/28 06:20:40;;;;;;;7.83;4.90;;;-2.20;99.90;;;;;;5016150;28;20447;-79
2023/01/28 06:23:09;;;;;;;10.77;6.60;;;-2.20;99.90;;;;;;4997389;28;20464;-80
2023/01/28 06:25:39;;;;;;;6.50;4.80;;;-2.10;99.90;;;;;;5015528;28;20454;-80
2023/01/28 06:28:08;;;;;;;4.33;3.93;;;-2.10;99.90;;;;;;5015602;28;20506;-80
2023/01/28 06:30:37;;;;;;;5.20;3.53;;;-2.20;99.90;;;;;;5015412;28;20488;-80
2023/01/28 06:33:06;;;;;;;7.93;4.60;;;-2.10;99.90;;;;;;5015389;28;20492;-80
2023/01/28 06:35:38;;;;;;;6.33;4.10;;;-2.00;99.90;;;;;;5015194;28;20463;-80
2023/01/28 06:38:06;;;;;;;3.93;3.53;;;-1.90;99.90;;;;;;5015362;28;20547;-80
2023/01/28 06:40:34;;;;;;;5.77;3.50;;;-1.90;99.90;;;;;;5015349;28;20562;-80
2023/01/28 06:43:02;;;;;;;4.73;3.57;;;-1.90;99.90;;;;;;4997823;28;20563;-80
2023/01/28 06:45:32;;;;;;;4.63;3.13;;;-2.00;99.90;;;;;;5015176;28;20483;-80
2023/01/28 06:48:04;;;;;;;5.10;3.13;;;-2.00;99.90;;;;;;5014604;28;20502;-80
2023/01/28 06:50:33;;;;;;;4.13;3.73;;;-2.10;99.90;;;;;;5021606;28;20484;-80
2023/01/28 06:53:13;;;;;;;10.13;5.70;;;-2.00;99.90;;;;;;5017407;28;20978;-80
2023/01/28 06:55:41;;;;;;;12.33;6.23;;;-2.00;99.90;;;;;;5034903;28;20508;-80
2023/01/28 06:58:10;;;;;;;8.40;4.33;;;-2.00;99.90;;;;;;5016765;28;20446;-80
2023/01/28 07:00:39;;;;;;;5.43;4.03;;;-2.00;99.90;;;;;;5034659;28;20454;-80
2023/01/28 07:03:07;;;;;;;11.20;6.63;;;-2.10;99.90;;;;;;5016766;28;20493;-80
2023/01/28 07:05:37;;;;;;;19.67;9.40;;;-2.20;99.90;;;;;;5034366;28;20467;-80
2023/01/28 07:08:12;;;;;;;14.40;9.07;;;-2.20;99.90;;;;;;5034703;28;20454;-80
2023/01/28 07:11:05;;;;;;;17.93;7.30;;;-2.30;99.90;;;;;;5016689;28;20466;-80
2023/01/28 07:13:35;;;;;;;17.17;8.83;;;-2.30;99.90;;;;;;5034308;28;20478;-80
2023/01/28 07:16:05;;;;;;;10.30;8.03;;;-2.40;99.90;;;;;;5042370;28;20481;-80
2023/01/28 07:18:38;;;;;;;10.00;6.27;;;-2.40;99.90;;;;;;5042160;28;20943;-80
2023/01/28 07:21:08;;;;;;;10.23;6.03;;;-2.60;99.90;;;;;;5030890;28;20467;-80
2023/01/28 07:23:42;;;;;;;7.93;5.20;;;-2.60;99.90;;;;;;5018253;28;20454;-80
2023/01/28 07:26:10;;;;;;;7.70;4.33;;;-2.60;99.90;;;;;;5034045;28;20411;-80
2023/01/28 07:28:39;;;;;;;10.80;4.97;;;-2.50;99.90;;;;;;5033958;28;20449;-80
2023/01/28 07:31:07;;;;;;;5.80;4.47;;;-2.50;99.90;;;;;;5030938;28;20501;-80
2023/01/28 07:33:35;;;;;;;7.00;5.17;;;-2.60;99.90;;;;;;5017470;28;20498;-80
2023/01/28 07:36:05;;;;;;;6.57;5.10;;;-2.60;99.90;;;;;;5014414;28;20463;-80
2023/01/28 07:38:33;;;;;;;4.83;4.40;;;-2.60;99.90;;;;;;5018900;28;20493;-80
2023/01/28 07:41:09;;;;;;;8.30;5.33;;;-2.50;99.90;;;;;;5033002;28;20440;-80
2023/01/28 07:43:38;;;;;;;8.43;5.57;;;-2.40;99.90;;;;;;5016538;28;20483;-80
2023/01/28 07:46:07;;;;;;;11.57;7.30;;;-2.20;99.90;;;;;;5035434;28;20442;-80
2023/01/28 07:48:36;;;;;;;12.87;8.47;;;-2.20;99.90;;;;;;5017693;28;20460;-80
2023/01/28 07:51:05;;;;;;;11.80;8.33;;;-2.30;99.90;;;;;;5023089;28;20826;-80
2023/01/28 07:53:35;;;;;;;14.80;9.70;;;-2.40;99.90;;;;;;5033506;28;20897;-80
2023/01/28 07:56:07;;;;;;;11.70;9.47;;;-2.40;99.90;;;;;;5019632;28;20475;-80
2023/01/28 07:58:36;;;;;;;14.60;10.50;;;-2.40;99.90;;;;;;5014597;28;20941;-80
2023/01/28 08:01:08;;;;;;;14.30;10.30;;;-2.40;99.90;;;;;;5014318;28;20454;-80
2023/01/28 08:03:36;;;;;;;10.30;8.93;;;-2.40;99.90;;;;;;4999986;28;20520;-80
2023/01/28 08:06:04;;;;;;;9.87;8.80;;;-2.30;99.90;;;;;;5032168;28;20490;-80
2023/01/28 08:08:31;;;;;;;14.40;11.17;;;-2.30;99.90;;;;;;5031453;28;20446;-80
2023/01/28 08:11:13;;;;;;;17.77;12.90;;;-2.30;99.90;;;;;;5034205;28;20492;-81
2023/01/28 08:13:51;;;;;;;18.33;14.70;;;-2.20;99.90;;;;;;5038046;28;20478;-81
2023/01/28 08:16:30;;;;;;;30.83;21.10;;;-2.40;99.90;;;;;;5036202;28;20447;-82
2023/01/28 08:22:48;;;;;;;22.70;15.23;;;-2.30;99.90;;;;;;5036583;28;20457;-82
2023/01/28 08:25:18;;;;;;;30.17;16.37;;;-2.30;99.90;;;;;;5019075;28;20865;-82
2023/01/28 08:27:47;;;;;;;18.43;13.63;;;-2.40;99.90;;;;;;5034180;28;20451;-79
2023/01/28 08:30:19;;;;;;;13.87;10.77;;;-2.30;99.90;;;;;;5032227;28;20446;-80
2023/01/28 08:32:47;;;;;;;10.43;7.03;;;-2.30;99.90;;;;;;5030904;28;20459;-80
2023/01/28 08:35:15;;;;;;;11.70;7.30;;;-2.20;99.90;;;;;;5028477;28;20458;-80
2023/01/28 08:37:43;;;;;;;14.60;10.53;;;-2.00;99.90;;;;;;5027224;28;20450;-80
2023/01/28 08:40:13;;;;;;;11.63;9.30;;;-1.90;99.90;;;;;;5021210;28;20542;-80
2023/01/28 08:42:46;;;;;;;11.33;7.10;;;-1.70;99.90;;;;;;5024366;28;20966;-80
2023/01/28 08:45:16;;;;;;;14.23;6.50;;;-1.60;99.90;;;;;;5027019;28;20439;-80
2023/01/28 08:47:51;;;;;;;14.33;9.03;;;-1.50;99.90;;;;;;5029620;28;20438;-80
2023/01/28 08:50:26;;;;;;;13.60;10.43;;;-1.30;99.90;;;;;;5009056;28;20439;-80
2023/01/28 08:53:12;;;;;;;8.37;7.50;;;-1.20;99.90;;;;;;5014426;28;20673;-81
2023/01/28 08:55:53;;;;;;;9.33;6.60;;;-1.20;99.90;;;;;;5013398;28;20855;-81
2023/01/28 08:58:26;;;;;;;7.13;6.10;;;-1.10;99.90;;;;;;5031551;28;20461;-80
2023/01/28 09:06:36;;;;;;;16.07;11.87;;;-1.00;99.90;;;;;;5031122;28;20470;-47
2023/01/28 09:09:03;;;;;;;14.40;12.43;;;-1.10;99.90;;;;;;5026972;28;20533;-47
2023/01/28 09:11:30;;;;;;;13.70;11.00;;;-1.00;99.90;;;;;;5026898;28;20506;-47
2023/01/28 09:13:57;;;;;;;19.10;13.80;;;-0.90;99.90;;;;;;5027860;28;20521;-50
2023/01/28 09:16:26;;;;;;;15.53;13.93;;;-1.00;99.90;;;;;;5028424;28;20549;-47
2023/01/28 09:18:52;;;;;;;16.43;12.77;;;-1.30;99.90;;;;;;5111686;23;20580;-50
2023/01/28 09:21:19;;;;;;;15.17;11.40;;;-1.40;99.90;;;;;;5057699;28;20536;-53
2023/01/28 09:23:46;;;;;;;16.13;11.63;;;-1.20;99.90;;;;;;5067695;28;20494;-50
2023/01/28 09:26:13;;;;;;;16.20;12.77;;;-1.10;99.90;;;;;;5068870;28;20683;-50
2023/01/28 09:28:40;;;;;;;16.40;13.00;;;-1.20;99.90;;;;;;5053904;28;20552;-51
2023/01/28 09:31:09;;;;;;;13.03;10.33;;;-1.10;99.90;;;;;;5047610;28;20564;-51
2023/01/28 09:33:38;;;;;;;12.77;9.77;;;-1.20;99.90;;;;;;5046111;28;20533;-51
2023/01/28 09:36:08;;;;;;;11.43;9.70;;;-1.30;99.90;;;;;;5046731;28;20992;-53
2023/01/28 09:38:35;;;;;;;8.00;6.43;;;-1.20;99.90;;;;;;5046834;28;20277;-53
2023/01/28 09:41:09;;;;;;;7.50;6.80;;;-1.20;99.90;;;;;;5047975;28;20434;-51
2023/01/28 09:43:51;;;;;;;9.00;5.83;;;-1.10;99.90;;;;;;5046476;28;20880;-50
2023/01/28 09:46:18;;;;;;;8.73;6.40;;;-1.00;99.90;;;;;;5048174;28;20457;-50
2023/01/28 09:48:50;;;;;;;8.63;7.10;;;-0.80;99.90;;;;;;5048920;28;20548;-50
2023/01/28 09:51:29;;;;;;;8.30;7.23;;;-1.10;99.90;;;;;;5052286;28;21077;-50
2023/01/28 09:53:59;;;;;;;7.87;6.47;;;-1.10;99.90;;;;;;5050898;28;20437;-50
2023/01/28 09:56:30;;;;;;;10.27;7.50;;;-0.90;99.90;;;;;;5049877;28;20533;-53
2023/01/28 09:58:58;;;;;;;10.20;6.73;;;-0.90;99.90;;;;;;5048555;28;20563;-51
2023/01/28 10:01:44;;;;;;;9.07;6.97;;;-0.90;99.90;;;;;;5048834;28;20525;-51
2023/01/28 10:04:26;;;;;;;7.93;6.37;;;-0.90;99.90;;;;;;5045412;28;20805;-50
2023/01/28 10:07:05;;;;;;;10.60;6.80;;;-0.90;99.90;;;;;;5050277;28;20536;-52
2023/01/28 10:09:42;;;;;;;8.40;6.90;;;-0.90;99.90;;;;;;5048671;28;20895;-52
2023/01/28 10:12:28;;;;;;;6.80;6.10;;;-0.90;99.90;;;;;;5050449;28;20568;-51
2023/01/28 10:15:13;;;;;;;7.37;5.43;;;-0.90;99.90;;;;;;5049567;28;20525;-51
2023/01/28 10:17:43;;;;;;;8.67;6.30;;;-0.80;99.90;;;;;;5051171;28;20553;-53
2023/01/28 10:20:21;;;;;;;10.40;6.43;;;-0.70;99.90;;;;;;5050241;28;20524;-51
2023/01/28 10:22:53;;;;;;;8.20;6.67;;;-0.70;99.90;;;;;;5051864;28;20528;-51
2023/01/28 10:25:22;;;;;;;10.20;8.00;;;-0.80;99.90;;;;;;5046611;28;20533;-50
2023/01/28 10:27:51;;;;;;;11.40;8.23;;;-0.70;99.90;;;;;;5051485;28;20721;-49
2023/01/28 10:30:21;;;;;;;12.03;8.23;;;-0.70;99.90;;;;;;5048998;28;20529;-52
2023/01/28 10:32:53;;;;;;;8.50;6.50;;;-0.70;99.90;;;;;;5051100;28;20560;-51
2023/01/28 10:35:22;;;;;;;7.90;6.70;;;-0.80;99.90;;;;;;5047487;28;20457;-53
2023/01/28 10:37:52;;;;;;;7.63;6.80;;;-0.80;99.90;;;;;;5048284;28;20524;-50
2023/01/28 10:40:19;;;;;;;10.33;6.67;;;-0.70;99.90;;;;;;5044604;28;20904;-53
2023/01/28 10:42:46;;;;;;;8.80;6.07;;;-0.60;99.90;;;;;;5049480;28;20849;-53
2023/01/28 10:45:20;;;;;;;8.40;6.47;;;-0.50;99.90;;;;;;5050275;28;20528;-51
2023/01/28 10:47:51;;;;;;;9.60;6.57;;;-0.50;99.90;;;;;;5037232;28;20479;-54
2023/01/28 10:50:23;;;;;;;8.10;6.90;;;-0.60;99.90;;;;;;5038102;28;21254;-50
2023/01/28 10:52:54;;;;;;;7.57;6.43;;;-0.40;99.90;;;;;;5039531;28;20864;-54
2023/01/28 10:55:22;;;;;;;7.37;5.83;;;-0.20;99.90;;;;;;5036317;28;20529;-54
2023/01/28 10:57:49;;;;;;;8.90;6.10;;;-0.10;99.90;;;;;;5039229;28;20907;-51
2023/01/28 11:00:24;;;;;;;8.63;6.70;;;-0.10;99.90;;;;;;5041962;28;20452;-52
2023/01/28 11:02:52;;;;;;;8.53;7.07;;;-0.10;99.90;;;;;;5037542;28;20535;-51
2023/01/28 11:05:20;;;;;;;5.77;5.03;;;-0.50;99.90;;;;;;5036474;28;20460;-52
2023/01/28 11:07:49;;;;;;;7.00;5.57;;;-0.40;99.90;;;;;;5043197;28;20466;-52
2023/01/28 11:10:26;;;;;;;5.37;4.87;;;-0.50;99.90;;;;;;5043290;28;20947;-51
2023/01/28 11:12:57;;;;;;;8.90;6.17;;;-0.70;99.90;;;;;;5042575;28;20496;-52
2023/01/28 11:15:24;;;;;;;6.93;5.30;;;-0.80;99.90;;;;;;5041660;28;20450;-51
2023/01/28 11:17:57;;;;;;;6.70;5.23;;;-0.90;99.90;;;;;;5043004;28;20557;-50
2023/01/28 11:20:26;;;;;;;8.40;5.47;;;-0.90;99.90;;;;;;5041491;28;20448;-53
2023/01/28 11:22:55;;;;;;;6.50;5.03;;;-0.90;99.90;;;;;;5040921;28;21015;-56
2023/01/28 11:25:29;;;;;;;8.80;6.30;;;-0.70;99.90;;;;;;5041669;28;20450;-54
2023/01/28 11:27:57;;;;;;;8.40;5.93;;;-0.50;99.90;;;;;;5044477;28;20599;-51
2023/01/28 11:30:26;;;;;;;6.03;5.13;;;-0.70;99.90;;;;;;5037526;28;20456;-50
2023/01/28 11:32:59;;;;;;;7.40;5.63;;;-0.50;99.90;;;;;;5041042;28;20478;-54
2023/01/28 11:35:29;;;;;;;8.00;5.70;;;-0.50;99.90;;;;;;5040951;28;20871;-52
2023/01/28 11:37:58;;;;;;;6.13;5.53;;;-0.50;99.90;;;;;;5043614;28;20824;-51
2023/01/28 11:40:25;;;;;;;7.03;5.83;;;-0.40;99.90;;;;;;5045923;28;20922;-51
2023/01/28 11:42:55;;;;;;;7.23;5.63;;;-0.30;99.90;;;;;;5045641;28;20526;-52
2023/01/28 11:45:35;;;;;;;7.60;5.40;;;-0.20;99.90;;;;;;5044222;28;20512;-52
2023/01/28 11:48:22;;;;;;;6.17;5.63;;;0.00;99.90;;;;;;5041600;28;20497;-50
2023/01/28 11:50:54;;;;;;;9.30;5.23;;;0.10;99.90;;;;;;5044240;28;20529;-52
2023/01/28 11:53:54;;;;;;;6.20;5.60;;;0.20;99.90;;;;;;5043998;28;20568;-51
2023/01/28 11:57:04;;;;;;;5.80;4.87;;;0.30;99.90;;;;;;5043698;28;20446;-52
2023/01/28 11:59:48;;;;;;;6.80;6.20;;;0.20;99.90;;;;;;4982953;28;20443;-51
2023/01/28 12:02:39;;;;;;;7.20;5.20;;;0.20;99.90;;;;;;5042982;28;20533;-52
2023/01/28 12:05:19;;;;;;;7.00;5.87;;;0.20;99.90;;;;;;5045267;28;20525;-52
2023/01/28 12:07:57;;;;;;;6.00;5.07;;;0.20;99.90;;;;;;5044624;28;21068;-51
2023/01/28 12:10:36;;;;;;;6.30;5.30;;;0.40;99.90;;;;;;5045315;28;21252;-52
2023/01/28 12:13:16;;;;;;;7.17;5.27;;;0.50;99.90;;;;;;5044199;28;20485;-50
2023/01/28 12:16:03;;;;;;;7.80;5.93;;;0.50;99.90;;;;;;5046112;28;20528;-52
2023/01/28 12:18:56;;;;;;;7.30;6.10;;;0.50;99.90;;;;;;5045086;28;20564;-52
2023/01/28 12:21:36;;;;;;;8.77;5.83;;;0.50;99.90;;;;;;5034147;28;21001;-51
2023/01/28 12:24:15;;;;;;;7.93;6.30;;;0.60;99.90;;;;;;5039544;28;20916;-51
2023/01/28 12:26:50;;;;;;;9.80;5.33;;;0.60;99.90;;;;;;5041223;28;20939;-52
2023/01/28 12:29:25;;;;;;;7.00;5.60;;;0.50;99.90;;;;;;5043455;28;20565;-51
2023/01/28 12:32:06;;;;;;;8.80;5.60;;;0.50;99.90;;;;;;5044552;28;20536;-51
2023/01/28 12:35:09;;;;;;;6.23;5.13;;;0.40;99.90;;;;;;5042717;28;20562;-52
2023/01/28 12:37:51;;;;;;;5.57;5.00;;;0.50;99.90;;;;;;5031229;28;20552;-51
2023/01/28 12:40:32;;;;;;;8.23;5.90;;;0.50;99.90;;;;;;5044871;28;20541;-54
2023/01/28 12:43:05;;;;;;;7.67;6.10;;;0.30;99.90;;;;;;5044818;28;20525;-52
2023/01/28 12:45:39;;;;;;;8.47;6.10;;;0.30;99.90;;;;;;5044972;28;20533;-52
2023/01/28 12:48:11;;;;;;;8.60;5.40;;;0.40;99.90;;;;;;5041956;28;20474;-51
2023/01/28 12:50:43;;;;;;;7.23;5.83;;;0.50;99.90;;;;;;5038097;28;20533;-52
2023/01/28 12:53:23;;;;;;;8.00;6.43;;;0.40;99.90;;;;;;5045534;28;20877;-53
2023/01/28 12:55:57;;;;;;;8.83;5.93;;;0.40;99.90;;;;;;5045117;28;20445;-52
2023/01/28 12:58:37;;;;;;;10.53;5.83;;;0.30;99.90;;;;;;5045347;28;20465;-52
2023/01/28 13:01:08;;;;;;;6.93;5.40;;;0.10;99.90;;;;;;5040274;28;20461;-50
2023/01/28 13:03:39;;;;;;;8.30;6.37;;;0.00;99.90;;;;;;5041809;28;20442;-54
2023/01/28 13:06:12;;;;;;;12.27;6.57;;;0.10;99.90;;;;;;5039944;28;20458;-53
2023/01/28 13:08:39;;;;;;;7.17;5.87;;;0.10;99.90;;;;;;5038593;28;20465;-53
2023/01/28 13:11:14;;;;;;;7.03;5.90;;;0.20;99.90;;;;;;5036252;28;20844;-51
2023/01/28 13:13:45;;;;;;;7.30;6.60;;;0.10;99.90;;;;;;5039234;28;21006;-51
2023/01/28 13:16:13;;;;;;;9.07;7.90;;;0.20;99.90;;;;;;5040869;28;20457;-51
2023/01/28 13:18:46;;;;;;;13.23;8.50;;;0.30;99.90;;;;;;5041603;28;20477;-54
2023/01/28 13:21:16;;;;;;;11.03;7.90;;;0.40;99.90;;;;;;5037960;28;20715;-51
2023/01/28 13:23:45;;;;;;;11.27;9.23;;;0.50;99.90;;;;;;5041887;28;20553;-53
2023/01/28 13:26:29;;;;;;;12.13;9.10;;;0.50;99.90;;;;;;5048644;28;20922;-52
2023/01/28 13:29:18;;;;;;;13.73;9.77;;;0.60;99.90;;;;;;5049139;28;20915;-50
2023/01/28 13:31:46;;;;;;;8.60;7.70;;;0.70;99.90;;;;;;5049463;28;20446;-51
2023/01/28 13:34:31;;;;;;;7.20;6.50;;;0.60;99.90;;;;;;5048289;28;20485;-51
2023/01/28 13:37:00;;;;;;;9.60;6.33;;;0.60;99.90;;;;;;5049187;28;20445;-52
2023/01/28 13:39:29;;;;;;;9.03;6.80;;;0.60;99.90;;;;;;5047550;28;21037;-51
2023/01/28 13:42:09;;;;;;;9.40;7.37;;;0.70;99.90;;;;;;5048301;28;20450;-51
2023/01/28 13:44:38;;;;;;;7.93;6.20;;;0.60;99.90;;;;;;5048008;28;20929;-50
2023/01/28 13:47:21;;;;;;;7.70;5.63;;;0.70;99.90;;;;;;5046472;28;20540;-52
2023/01/28 13:49:50;;;;;;;7.53;6.70;;;0.80;99.90;;;;;;5040376;28;20470;-51
2023/01/28 13:52:23;;;;;;;9.27;6.97;;;0.80;99.90;;;;;;5029154;28;20453;-51